sensor_id;sensor_type;location;lat;lon;timestamp;temperature;humidity
1413;DHT22;701;52.526;13.408;2023-04-03T00:00:29;2.00;23.40
1413;DHT22;701;52.526;13.408;2023-04-03T00:02:55;2.00;23.40
1413;DHT22;701;52.526;13.408;2023-04-03T00:05:20;2.00;23.50
1413;DHT22;701;52.526;13.408;2023-04-03T00:07:46;2.00;23.40
1413;DHT22;701;52.526;13.408;2023-04-03T00:10:12;1.90;23.40
1413;DHT22;701;52.526;13.408;2023-04-03T00:12:39;1.90;23.60
1413;DHT22;701;52.526;13.408;2023-04-03T00:15:05;1.90;23.50
1413;DHT22;701;52.526;13.408;2023-04-03T00:17:32;1.90;23.60
1413;DHT22;701;52.526;13.408;2023-04-03T00:19:57;1.90;23.80
1413;DHT22;701;52.526;13.408;2023-04-03T00:22:23;1.90;23.80
1413;DHT22;701;52.526;13.408;2023-04-03T00:24:49;1.90;23.80
1413;DHT22;701;52.526;13.408;2023-04-03T00:27:15;1.90;23.80
1413;DHT22;701;52.526;13.408;2023-04-03T00:29:41;1.80;23.70
1413;DHT22;701;52.526;13.408;2023-04-03T00:32:07;1.80;23.60
1413;DHT22;701;52.526;13.408;2023-04-03T00:34:32;1.80;23.70
1413;DHT22;701;52.526;13.408;2023-04-03T00:36:58;1.80;23.80
1413;DHT22;701;52.526;13.408;2023-04-03T00:39:24;1.80;23.70
1413;DHT22;701;52.526;13.408;2023-04-03T00:41:50;1.80;23.80
1413;DHT22;701;52.526;13.408;2023-04-03T00:47:02;1.80;23.80
1413;DHT22;701;52.526;13.408;2023-04-03T00:49:29;1.80;23.80
1413;DHT22;701;52.526;13.408;2023-04-03T00:51:56;1.70;23.70
1413;DHT22;701;52.526;13.408;2023-04-03T00:54:24;1.70;23.80
1413;DHT22;701;52.526;13.408;2023-04-03T00:56:51;1.70;24.00
1413;DHT22;701;52.526;13.408;2023-04-03T00:59:22;1.70;23.80
1413;DHT22;701;52.526;13.408;2023-04-03T01:01:52;1.70;23.90
1413;DHT22;701;52.526;13.408;2023-04-03T01:04:34;1.70;23.90
1413;DHT22;701;52.526;13.408;2023-04-03T01:07:06;1.60;23.90
1413;DHT22;701;52.526;13.408;2023-04-03T01:09:33;1.60;23.90
1413;DHT22;701;52.526;13.408;2023-04-03T01:12:27;1.60;24.10
1413;DHT22;701;52.526;13.408;2023-04-03T01:14:59;1.60;24.10
1413;DHT22;701;52.526;13.408;2023-04-03T01:23:11;1.60;24.20
1413;DHT22;701;52.526;13.408;2023-04-03T01:25:40;1.60;24.30
1413;DHT22;701;52.526;13.408;2023-04-03T01:28:08;1.50;24.20
1413;DHT22;701;52.526;13.408;2023-04-03T01:30:48;1.60;24.40
1413;DHT22;701;52.526;13.408;2023-04-03T01:33:16;1.50;24.40
1413;DHT22;701;52.526;13.408;2023-04-03T01:35:42;1.50;24.50
1413;DHT22;701;52.526;13.408;2023-04-03T01:38:08;1.50;24.50
1413;DHT22;701;52.526;13.408;2023-04-03T01:40:34;1.50;24.60
1413;DHT22;701;52.526;13.408;2023-04-03T01:43:00;1.50;24.70
1413;DHT22;701;52.526;13.408;2023-04-03T01:45:25;1.50;24.70
1413;DHT22;701;52.526;13.408;2023-04-03T01:47:51;1.50;24.80
1413;DHT22;701;52.526;13.408;2023-04-03T01:50:17;1.50;24.90
1413;DHT22;701;52.526;13.408;2023-04-03T01:52:44;1.50;25.00
1413;DHT22;701;52.526;13.408;2023-04-03T01:55:10;1.50;25.00
1413;DHT22;701;52.526;13.408;2023-04-03T01:57:36;1.50;25.10
1413;DHT22;701;52.526;13.408;2023-04-03T02:00:02;1.50;25.20
1413;DHT22;701;52.526;13.408;2023-04-03T02:02:38;1.50;25.20
1413;DHT22;701;52.526;13.408;2023-04-03T02:05:04;1.50;25.20
1413;DHT22;701;52.526;13.408;2023-04-03T02:07:31;1.50;25.30
1413;DHT22;701;52.526;13.408;2023-04-03T02:09:57;1.50;25.30
1413;DHT22;701;52.526;13.408;2023-04-03T02:12:22;1.40;25.40
1413;DHT22;701;52.526;13.408;2023-04-03T02:14:48;1.40;25.40
1413;DHT22;701;52.526;13.408;2023-04-03T02:17:14;1.40;25.40
1413;DHT22;701;52.526;13.408;2023-04-03T02:19:40;1.40;25.60
1413;DHT22;701;52.526;13.408;2023-04-03T02:22:06;1.40;25.60
1413;DHT22;701;52.526;13.408;2023-04-03T02:24:32;1.40;25.70
1413;DHT22;701;52.526;13.408;2023-04-03T02:26:58;1.40;25.70
1413;DHT22;701;52.526;13.408;2023-04-03T02:29:24;1.40;25.80
1413;DHT22;701;52.526;13.408;2023-04-03T02:31:50;1.40;25.90
1413;DHT22;701;52.526;13.408;2023-04-03T02:34:17;1.40;25.90
1413;DHT22;701;52.526;13.408;2023-04-03T02:36:44;1.30;25.80
1413;DHT22;701;52.526;13.408;2023-04-03T02:39:11;1.30;25.90
1413;DHT22;701;52.526;13.408;2023-04-03T02:41:37;1.30;25.90
1413;DHT22;701;52.526;13.408;2023-04-03T02:44:10;1.30;26.00
1413;DHT22;701;52.526;13.408;2023-04-03T02:46:36;1.30;26.00
1413;DHT22;701;52.526;13.408;2023-04-03T02:49:02;1.30;26.40
1413;DHT22;701;52.526;13.408;2023-04-03T02:51:28;1.30;26.20
1413;DHT22;701;52.526;13.408;2023-04-03T02:53:54;1.30;26.20
1413;DHT22;701;52.526;13.408;2023-04-03T02:56:24;1.30;26.40
1413;DHT22;701;52.526;13.408;2023-04-03T02:58:50;1.30;26.40
1413;DHT22;701;52.526;13.408;2023-04-03T03:01:18;1.20;26.30
1413;DHT22;701;52.526;13.408;2023-04-03T03:03:43;1.20;26.30
1413;DHT22;701;52.526;13.408;2023-04-03T03:06:14;1.20;26.30
1413;DHT22;701;52.526;13.408;2023-04-03T03:08:40;1.20;26.30
1413;DHT22;701;52.526;13.408;2023-04-03T03:11:07;1.20;26.30
1413;DHT22;701;52.526;13.408;2023-04-03T03:13:33;1.10;26.20
1413;DHT22;701;52.526;13.408;2023-04-03T03:15:59;1.10;26.20
1413;DHT22;701;52.526;13.408;2023-04-03T03:18:25;1.10;26.20
1413;DHT22;701;52.526;13.408;2023-04-03T03:20:53;1.10;26.30
1413;DHT22;701;52.526;13.408;2023-04-03T03:23:20;1.10;26.20
1413;DHT22;701;52.526;13.408;2023-04-03T03:25:46;1.10;26.50
1413;DHT22;701;52.526;13.408;2023-04-03T03:28:12;1.00;26.50
1413;DHT22;701;52.526;13.408;2023-04-03T03:30:38;1.00;26.50
1413;DHT22;701;52.526;13.408;2023-04-03T03:33:04;1.00;26.50
1413;DHT22;701;52.526;13.408;2023-04-03T03:35:29;1.00;26.60
1413;DHT22;701;52.526;13.408;2023-04-03T03:37:55;1.00;26.70
1413;DHT22;701;52.526;13.408;2023-04-03T03:40:22;1.00;26.40
1413;DHT22;701;52.526;13.408;2023-04-03T03:42:47;1.00;26.80
1413;DHT22;701;52.526;13.408;2023-04-03T03:45:13;1.00;26.90
1413;DHT22;701;52.526;13.408;2023-04-03T03:47:41;1.00;26.90
1413;DHT22;701;52.526;13.408;2023-04-03T03:50:07;0.90;27.00
1413;DHT22;701;52.526;13.408;2023-04-03T03:52:33;0.90;27.00
1413;DHT22;701;52.526;13.408;2023-04-03T03:54:58;0.90;27.10
1413;DHT22;701;52.526;13.408;2023-04-03T03:57:25;0.90;27.10
1413;DHT22;701;52.526;13.408;2023-04-03T03:59:52;0.90;27.20
1413;DHT22;701;52.526;13.408;2023-04-03T04:02:18;0.90;27.10
1413;DHT22;701;52.526;13.408;2023-04-03T04:04:44;0.90;27.30
1413;DHT22;701;52.526;13.408;2023-04-03T04:07:10;0.80;27.20
1413;DHT22;701;52.526;13.408;2023-04-03T04:09:36;0.80;27.40
1413;DHT22;701;52.526;13.408;2023-04-03T04:12:02;0.80;27.40
1413;DHT22;701;52.526;13.408;2023-04-03T04:14:30;0.80;27.50
1413;DHT22;701;52.526;13.408;2023-04-03T04:16:56;0.80;27.50
1413;DHT22;701;52.526;13.408;2023-04-03T04:19:25;0.80;27.50
1413;DHT22;701;52.526;13.408;2023-04-03T04:21:50;0.80;27.60
1413;DHT22;701;52.526;13.408;2023-04-03T04:24:16;0.80;27.80
1413;DHT22;701;52.526;13.408;2023-04-03T04:26:43;0.70;27.80
1413;DHT22;701;52.526;13.408;2023-04-03T04:29:11;0.70;27.90
1413;DHT22;701;52.526;13.408;2023-04-03T04:31:37;0.70;28.00
1413;DHT22;701;52.526;13.408;2023-04-03T04:34:03;0.70;28.20
1413;DHT22;701;52.526;13.408;2023-04-03T04:36:29;0.70;28.30
1413;DHT22;701;52.526;13.408;2023-04-03T04:38:55;0.70;28.30
1413;DHT22;701;52.526;13.408;2023-04-03T04:41:23;0.70;28.40
1413;DHT22;701;52.526;13.408;2023-04-03T04:43:50;0.70;28.50
1413;DHT22;701;52.526;13.408;2023-04-03T04:46:16;0.70;28.50
1413;DHT22;701;52.526;13.408;2023-04-03T04:48:47;0.70;28.60
1413;DHT22;701;52.526;13.408;2023-04-03T04:51:15;0.70;28.60
1413;DHT22;701;52.526;13.408;2023-04-03T04:53:41;0.70;28.60
1413;DHT22;701;52.526;13.408;2023-04-03T04:56:10;0.70;28.70
1413;DHT22;701;52.526;13.408;2023-04-03T04:58:38;0.80;28.80
1413;DHT22;701;52.526;13.408;2023-04-03T05:01:07;0.80;28.80
1413;DHT22;701;52.526;13.408;2023-04-03T05:03:37;0.80;28.90
1413;DHT22;701;52.526;13.408;2023-04-03T05:06:03;0.80;29.00
1413;DHT22;701;52.526;13.408;2023-04-03T05:08:31;0.80;28.90
1413;DHT22;701;52.526;13.408;2023-04-03T05:10:57;0.90;28.90
1413;DHT22;701;52.526;13.408;2023-04-03T05:13:25;0.90;28.90
1413;DHT22;701;52.526;13.408;2023-04-03T05:15:51;0.90;29.40
1413;DHT22;701;52.526;13.408;2023-04-03T05:18:17;1.00;29.00
1413;DHT22;701;52.526;13.408;2023-04-03T05:20:43;1.00;29.40
1413;DHT22;701;52.526;13.408;2023-04-03T05:23:10;1.00;28.90
1413;DHT22;701;52.526;13.408;2023-04-03T05:25:38;1.10;29.30
1413;DHT22;701;52.526;13.408;2023-04-03T05:28:05;1.10;28.80
1413;DHT22;701;52.526;13.408;2023-04-03T05:30:30;1.10;28.60
1413;DHT22;701;52.526;13.408;2023-04-03T05:32:56;1.10;28.70
1413;DHT22;701;52.526;13.408;2023-04-03T05:35:37;1.20;28.60
1413;DHT22;701;52.526;13.408;2023-04-03T05:38:07;1.20;28.60
1413;DHT22;701;52.526;13.408;2023-04-03T05:40:33;1.20;28.40
1413;DHT22;701;52.526;13.408;2023-04-03T05:42:59;1.30;28.30
1413;DHT22;701;52.526;13.408;2023-04-03T05:45:27;1.30;28.20
1413;DHT22;701;52.526;13.408;2023-04-03T05:47:53;1.40;28.20
1413;DHT22;701;52.526;13.408;2023-04-03T05:50:19;1.40;28.10
1413;DHT22;701;52.526;13.408;2023-04-03T05:52:47;1.40;27.90
1413;DHT22;701;52.526;13.408;2023-04-03T05:55:14;1.50;27.80
1413;DHT22;701;52.526;13.408;2023-04-03T05:57:41;1.50;27.60
1413;DHT22;701;52.526;13.408;2023-04-03T06:00:08;1.50;27.20
1413;DHT22;701;52.526;13.408;2023-04-03T06:02:39;1.60;27.10
1413;DHT22;701;52.526;13.408;2023-04-03T06:05:08;1.60;27.00
1413;DHT22;701;52.526;13.408;2023-04-03T06:07:35;1.60;26.50
1413;DHT22;701;52.526;13.408;2023-04-03T06:10:01;1.70;26.60
1413;DHT22;701;52.526;13.408;2023-04-03T06:12:27;1.80;26.70
1413;DHT22;701;52.526;13.408;2023-04-03T06:14:56;1.80;26.70
1413;DHT22;701;52.526;13.408;2023-04-03T06:17:21;1.90;26.70
1413;DHT22;701;52.526;13.408;2023-04-03T06:19:47;1.90;26.00
1413;DHT22;701;52.526;13.408;2023-04-03T06:22:14;2.00;25.80
1413;DHT22;701;52.526;13.408;2023-04-03T06:24:40;2.00;25.60
1413;DHT22;701;52.526;13.408;2023-04-03T06:27:06;2.10;25.30
1413;DHT22;701;52.526;13.408;2023-04-03T06:29:32;2.10;25.10
1413;DHT22;701;52.526;13.408;2023-04-03T06:31:58;2.20;24.70
1413;DHT22;701;52.526;13.408;2023-04-03T06:34:23;2.20;24.70
1413;DHT22;701;52.526;13.408;2023-04-03T06:36:50;2.30;24.60
1413;DHT22;701;52.526;13.408;2023-04-03T06:39:18;2.30;24.30
1413;DHT22;701;52.526;13.408;2023-04-03T06:41:48;2.40;23.70
1413;DHT22;701;52.526;13.408;2023-04-03T06:44:15;2.40;23.60
1413;DHT22;701;52.526;13.408;2023-04-03T06:46:42;2.50;23.50
1413;DHT22;701;52.526;13.408;2023-04-03T06:49:08;2.60;23.10
1413;DHT22;701;52.526;13.408;2023-04-03T06:51:35;2.60;22.90
1413;DHT22;701;52.526;13.408;2023-04-03T06:54:03;2.70;22.50
1413;DHT22;701;52.526;13.408;2023-04-03T06:56:29;2.80;22.40
1413;DHT22;701;52.526;13.408;2023-04-03T06:58:55;2.80;21.70
1413;DHT22;701;52.526;13.408;2023-04-03T07:01:24;2.90;21.50
1413;DHT22;701;52.526;13.408;2023-04-03T07:03:52;3.00;20.80
1413;DHT22;701;52.526;13.408;2023-04-03T07:06:19;3.10;20.50
1413;DHT22;701;52.526;13.408;2023-04-03T07:08:45;3.20;20.50
1413;DHT22;701;52.526;13.408;2023-04-03T07:11:12;3.30;19.90
1413;DHT22;701;52.526;13.408;2023-04-03T07:13:38;3.30;18.90
1413;DHT22;701;52.526;13.408;2023-04-03T07:16:05;3.50;18.50
1413;DHT22;701;52.526;13.408;2023-04-03T07:18:32;3.50;17.50
1413;DHT22;701;52.526;13.408;2023-04-03T07:20:58;3.80;17.30
1413;DHT22;701;52.526;13.408;2023-04-03T07:23:24;4.00;16.60
1413;DHT22;701;52.526;13.408;2023-04-03T07:25:51;4.40;15.30
1413;DHT22;701;52.526;13.408;2023-04-03T07:28:19;4.70;14.30
1413;DHT22;701;52.526;13.408;2023-04-03T07:30:46;5.00;12.60
1413;DHT22;701;52.526;13.408;2023-04-03T07:33:13;5.30;11.70
1413;DHT22;701;52.526;13.408;2023-04-03T07:35:41;5.50;11.10
1413;DHT22;701;52.526;13.408;2023-04-03T07:38:08;5.80;10.20
1413;DHT22;701;52.526;13.408;2023-04-03T07:40:34;5.80;9.70
1413;DHT22;701;52.526;13.408;2023-04-03T07:43:00;5.80;9.90
1413;DHT22;701;52.526;13.408;2023-04-03T07:45:26;5.80;9.90
1413;DHT22;701;52.526;13.408;2023-04-03T07:47:52;5.80;10.00
1413;DHT22;701;52.526;13.408;2023-04-03T07:50:18;5.90;10.00
1413;DHT22;701;52.526;13.408;2023-04-03T07:52:44;5.80;9.10
1413;DHT22;701;52.526;13.408;2023-04-03T07:55:11;5.80;8.70
1413;DHT22;701;52.526;13.408;2023-04-03T07:57:37;6.00;9.00
1413;DHT22;701;52.526;13.408;2023-04-03T08:00:05;6.20;8.10
1413;DHT22;701;52.526;13.408;2023-04-03T08:02:37;6.40;8.00
1413;DHT22;701;52.526;13.408;2023-04-03T08:05:04;6.60;7.50
1413;DHT22;701;52.526;13.408;2023-04-03T08:07:30;6.80;6.90
1413;DHT22;701;52.526;13.408;2023-04-03T08:09:55;6.90;7.10
1413;DHT22;701;52.526;13.408;2023-04-03T08:12:21;6.90;7.00
1413;DHT22;701;52.526;13.408;2023-04-03T08:14:47;6.90;6.50
1413;DHT22;701;52.526;13.408;2023-04-03T08:17:13;6.80;6.60
1413;DHT22;701;52.526;13.408;2023-04-03T08:19:39;6.70;6.60
1413;DHT22;701;52.526;13.408;2023-04-03T08:22:06;6.60;6.00
1413;DHT22;701;52.526;13.408;2023-04-03T08:24:35;6.50;6.10
1413;DHT22;701;52.526;13.408;2023-04-03T08:27:01;6.40;5.90
1413;DHT22;701;52.526;13.408;2023-04-03T08:29:27;6.30;6.10
1413;DHT22;701;52.526;13.408;2023-04-03T08:31:53;6.30;6.10
1413;DHT22;701;52.526;13.408;2023-04-03T08:34:19;6.40;6.20
1413;DHT22;701;52.526;13.408;2023-04-03T08:36:45;6.50;5.90
1413;DHT22;701;52.526;13.408;2023-04-03T08:39:11;6.60;5.90
1413;DHT22;701;52.526;13.408;2023-04-03T08:41:45;6.60;5.40
1413;DHT22;701;52.526;13.408;2023-04-03T08:44:25;6.70;4.70
1413;DHT22;701;52.526;13.408;2023-04-03T08:50:02;6.60;4.80
1413;DHT22;701;52.526;13.408;2023-04-03T08:52:38;6.60;4.70
1413;DHT22;701;52.526;13.408;2023-04-03T08:55:13;6.50;4.80
1413;DHT22;701;52.526;13.408;2023-04-03T08:57:44;6.50;4.80
1413;DHT22;701;52.526;13.408;2023-04-03T09:00:23;6.50;5.10
1413;DHT22;701;52.526;13.408;2023-04-03T09:02:54;6.60;4.90
1413;DHT22;701;52.526;13.408;2023-04-03T09:08:51;7.30;3.60
1413;DHT22;701;52.526;13.408;2023-04-03T09:21:45;12.70;1.00
1413;DHT22;701;52.526;13.408;2023-04-03T09:24:13;14.10;1.00
1413;DHT22;701;52.526;13.408;2023-04-03T09:27:01;14.80;1.00
1413;DHT22;701;52.526;13.408;2023-04-03T09:29:29;14.70;1.00
1413;DHT22;701;52.526;13.408;2023-04-03T09:32:00;14.50;1.00
1413;DHT22;701;52.526;13.408;2023-04-03T09:34:32;14.60;1.00
1413;DHT22;701;52.526;13.408;2023-04-03T09:37:03;14.80;1.00
1413;DHT22;701;52.526;13.408;2023-04-03T09:39:49;14.20;1.00
1413;DHT22;701;52.526;13.408;2023-04-03T09:42:20;13.40;1.00
1413;DHT22;701;52.526;13.408;2023-04-03T09:44:55;12.60;1.00
1413;DHT22;701;52.526;13.408;2023-04-03T09:52:39;10.70;1.00
1413;DHT22;701;52.526;13.408;2023-04-03T09:55:08;10.40;1.00
1413;DHT22;701;52.526;13.408;2023-04-03T09:57:39;10.10;1.00
1413;DHT22;701;52.526;13.408;2023-04-03T10:00:05;10.00;1.00
1413;DHT22;701;52.526;13.408;2023-04-03T10:02:39;9.80;1.00
1413;DHT22;701;52.526;13.408;2023-04-03T10:10:40;9.30;1.00
1413;DHT22;701;52.526;13.408;2023-04-03T10:18:44;9.00;1.00
1413;DHT22;701;52.526;13.408;2023-04-03T10:21:30;8.90;1.00
1413;DHT22;701;52.526;13.408;2023-04-03T10:24:08;8.90;1.00
1413;DHT22;701;52.526;13.408;2023-04-03T10:27:06;9.00;1.00
1413;DHT22;701;52.526;13.408;2023-04-03T10:33:18;8.80;1.00
1413;DHT22;701;52.526;13.408;2023-04-03T10:41:43;9.30;1.00
1413;DHT22;701;52.526;13.408;2023-04-03T10:46:49;9.50;1.00
1413;DHT22;701;52.526;13.408;2023-04-03T10:49:39;9.60;1.00
1413;DHT22;701;52.526;13.408;2023-04-03T10:57:29;9.90;1.00
1413;DHT22;701;52.526;13.408;2023-04-03T11:00:04;9.80;1.00
1413;DHT22;701;52.526;13.408;2023-04-03T11:02:44;9.70;1.00
1413;DHT22;701;52.526;13.408;2023-04-03T11:05:31;9.70;1.00
1413;DHT22;701;52.526;13.408;2023-04-03T11:08:04;9.50;1.00
1413;DHT22;701;52.526;13.408;2023-04-03T11:10:49;9.30;1.00
1413;DHT22;701;52.526;13.408;2023-04-03T11:13:34;9.10;1.00
1413;DHT22;701;52.526;13.408;2023-04-03T11:16:01;8.90;1.00
1413;DHT22;701;52.526;13.408;2023-04-03T11:19:29;8.80;1.00
1413;DHT22;701;52.526;13.408;2023-04-03T11:21:33;8.70;1.00
1413;DHT22;701;52.526;13.408;2023-04-03T11:24:03;8.80;1.00
1413;DHT22;701;52.526;13.408;2023-04-03T11:26:35;8.80;1.00
1413;DHT22;701;52.526;13.408;2023-04-03T11:29:10;8.80;1.00
1413;DHT22;701;52.526;13.408;2023-04-03T11:37:26;9.10;1.00
1413;DHT22;701;52.526;13.408;2023-04-03T11:42:42;9.10;1.00
1413;DHT22;701;52.526;13.408;2023-04-03T11:53:43;9.30;1.00
1413;DHT22;701;52.526;13.408;2023-04-03T11:56:29;9.30;1.00
1413;DHT22;701;52.526;13.408;2023-04-03T12:01:56;9.20;1.00
1413;DHT22;701;52.526;13.408;2023-04-03T12:04:26;9.20;1.00
1413;DHT22;701;52.526;13.408;2023-04-03T12:07:00;9.20;1.00
1413;DHT22;701;52.526;13.408;2023-04-03T12:09:34;9.10;1.00
1413;DHT22;701;52.526;13.408;2023-04-03T12:12:32;9.20;1.00
1413;DHT22;701;52.526;13.408;2023-04-03T12:15:18;9.20;1.00
1413;DHT22;701;52.526;13.408;2023-04-03T12:17:45;9.30;1.00
1413;DHT22;701;52.526;13.408;2023-04-03T12:26:20;9.00;1.00
1413;DHT22;701;52.526;13.408;2023-04-03T12:28:48;8.80;1.00
1413;DHT22;701;52.526;13.408;2023-04-03T12:31:15;8.70;1.00
1413;DHT22;701;52.526;13.408;2023-04-03T12:34:24;8.60;1.00
1413;DHT22;701;52.526;13.408;2023-04-03T12:43:25;8.80;1.00
1413;DHT22;701;52.526;13.408;2023-04-03T12:48:20;9.20;1.00
1413;DHT22;701;52.526;13.408;2023-04-03T12:50:49;9.30;1.00
1413;DHT22;701;52.526;13.408;2023-04-03T12:53:25;9.30;1.00
1413;DHT22;701;52.526;13.408;2023-04-03T12:55:57;9.20;1.00
1413;DHT22;701;52.526;13.408;2023-04-03T12:58:44;9.10;1.00
1413;DHT22;701;52.526;13.408;2023-04-03T13:01:13;9.00;1.00
1413;DHT22;701;52.526;13.408;2023-04-03T13:03:43;9.00;1.00
1413;DHT22;701;52.526;13.408;2023-04-03T13:06:32;9.00;1.00
1413;DHT22;701;52.526;13.408;2023-04-03T13:09:00;8.90;1.00
1413;DHT22;701;52.526;13.408;2023-04-03T13:11:32;8.70;1.00
1413;DHT22;701;52.526;13.408;2023-04-03T13:14:12;8.60;1.00
1413;DHT22;701;52.526;13.408;2023-04-03T13:16:39;8.50;1.00
1413;DHT22;701;52.526;13.408;2023-04-03T13:19:16;8.30;1.00
1413;DHT22;701;52.526;13.408;2023-04-03T13:21:42;8.30;1.00
1413;DHT22;701;52.526;13.408;2023-04-03T13:24:10;8.30;1.00
1413;DHT22;701;52.526;13.408;2023-04-03T13:26:36;8.30;1.00
1413;DHT22;701;52.526;13.408;2023-04-03T13:29:05;8.30;1.00
1413;DHT22;701;52.526;13.408;2023-04-03T13:31:34;8.30;1.00
1413;DHT22;701;52.526;13.408;2023-04-03T13:34:10;8.40;1.00
1413;DHT22;701;52.526;13.408;2023-04-03T13:41:50;8.70;1.00
1413;DHT22;701;52.526;13.408;2023-04-03T13:51:49;8.60;1.00
1413;DHT22;701;52.526;13.408;2023-04-03T13:54:24;8.60;1.00
1413;DHT22;701;52.526;13.408;2023-04-03T13:56:56;8.60;1.00
1413;DHT22;701;52.526;13.408;2023-04-03T13:59:36;8.60;1.00
1413;DHT22;701;52.526;13.408;2023-04-03T14:04:30;8.50;1.00
1413;DHT22;701;52.526;13.408;2023-04-03T14:06:56;8.40;1.00
1413;DHT22;701;52.526;13.408;2023-04-03T14:09:24;8.40;1.00
1413;DHT22;701;52.526;13.408;2023-04-03T14:11:54;8.50;1.00
1413;DHT22;701;52.526;13.408;2023-04-03T14:14:23;8.50;1.00
1413;DHT22;701;52.526;13.408;2023-04-03T14:16:55;8.60;1.00
1413;DHT22;701;52.526;13.408;2023-04-03T14:19:33;8.60;1.00
1413;DHT22;701;52.526;13.408;2023-04-03T14:22:00;8.70;1.00
1413;DHT22;701;52.526;13.408;2023-04-03T14:24:26;8.70;1.00
1413;DHT22;701;52.526;13.408;2023-04-03T14:26:54;8.70;1.00
1413;DHT22;701;52.526;13.408;2023-04-03T14:29:21;8.60;1.00
1413;DHT22;701;52.526;13.408;2023-04-03T14:31:48;8.50;1.00
1413;DHT22;701;52.526;13.408;2023-04-03T14:34:15;8.50;1.00
1413;DHT22;701;52.526;13.408;2023-04-03T14:36:42;8.60;1.10
1413;DHT22;701;52.526;13.408;2023-04-03T14:39:15;8.60;1.00
1413;DHT22;701;52.526;13.408;2023-04-03T14:41:42;8.70;1.00
1413;DHT22;701;52.526;13.408;2023-04-03T14:44:08;8.80;1.00
1413;DHT22;701;52.526;13.408;2023-04-03T14:46:38;8.80;1.00
1413;DHT22;701;52.526;13.408;2023-04-03T14:49:14;8.70;1.00
1413;DHT22;701;52.526;13.408;2023-04-03T14:51:40;8.70;1.00
1413;DHT22;701;52.526;13.408;2023-04-03T14:54:06;8.60;1.00
1413;DHT22;701;52.526;13.408;2023-04-03T14:56:36;8.40;1.40
1413;DHT22;701;52.526;13.408;2023-04-03T14:59:04;8.40;1.50
1413;DHT22;701;52.526;13.408;2023-04-03T15:01:31;8.20;1.90
1413;DHT22;701;52.526;13.408;2023-04-03T15:03:56;8.00;2.30
1413;DHT22;701;52.526;13.408;2023-04-03T15:06:22;7.90;2.90
1413;DHT22;701;52.526;13.408;2023-04-03T15:08:48;7.80;3.30
1413;DHT22;701;52.526;13.408;2023-04-03T15:11:14;7.70;3.60
1413;DHT22;701;52.526;13.408;2023-04-03T15:13:40;7.60;3.80
1413;DHT22;701;52.526;13.408;2023-04-03T15:16:14;7.60;4.10
1413;DHT22;701;52.526;13.408;2023-04-03T15:18:41;7.50;4.40
1413;DHT22;701;52.526;13.408;2023-04-03T15:21:06;7.40;4.70
1413;DHT22;701;52.526;13.408;2023-04-03T15:23:32;7.40;4.70
1413;DHT22;701;52.526;13.408;2023-04-03T15:25:58;7.30;5.00
1413;DHT22;701;52.526;13.408;2023-04-03T15:28:34;7.20;5.30
1413;DHT22;701;52.526;13.408;2023-04-03T15:31:01;7.10;5.60
1413;DHT22;701;52.526;13.408;2023-04-03T15:33:27;7.00;5.60
1413;DHT22;701;52.526;13.408;2023-04-03T15:35:53;7.00;5.90
1413;DHT22;701;52.526;13.408;2023-04-03T15:38:19;6.90;6.00
1413;DHT22;701;52.526;13.408;2023-04-03T15:40:45;6.90;6.10
1413;DHT22;701;52.526;13.408;2023-04-03T15:43:13;6.90;6.10
1413;DHT22;701;52.526;13.408;2023-04-03T15:45:39;6.90;6.20
1413;DHT22;701;52.526;13.408;2023-04-03T15:48:06;6.90;6.20
1413;DHT22;701;52.526;13.408;2023-04-03T15:50:33;6.90;6.00
1413;DHT22;701;52.526;13.408;2023-04-03T15:52:59;6.90;5.90
1413;DHT22;701;52.526;13.408;2023-04-03T15:55:29;6.90;6.00
1413;DHT22;701;52.526;13.408;2023-04-03T15:57:55;6.90;5.90
1413;DHT22;701;52.526;13.408;2023-04-03T16:00:22;6.80;6.00
1413;DHT22;701;52.526;13.408;2023-04-03T16:02:51;6.70;6.00
1413;DHT22;701;52.526;13.408;2023-04-03T16:05:18;6.60;6.20
1413;DHT22;701;52.526;13.408;2023-04-03T16:07:44;6.40;6.50
1413;DHT22;701;52.526;13.408;2023-04-03T16:10:12;6.30;6.80
1413;DHT22;701;52.526;13.408;2023-04-03T16:12:38;6.20;7.10
1413;DHT22;701;52.526;13.408;2023-04-03T16:15:04;6.10;7.40
1413;DHT22;701;52.526;13.408;2023-04-03T16:17:32;6.10;7.80
1413;DHT22;701;52.526;13.408;2023-04-03T16:19:59;6.10;7.80
1413;DHT22;701;52.526;13.408;2023-04-03T16:22:26;6.20;7.80
1413;DHT22;701;52.526;13.408;2023-04-03T16:24:53;6.30;7.90
1413;DHT22;701;52.526;13.408;2023-04-03T16:27:20;6.40;7.90
1413;DHT22;701;52.526;13.408;2023-04-03T16:29:46;6.50;7.50
1413;DHT22;701;52.526;13.408;2023-04-03T16:32:12;6.60;7.20
1413;DHT22;701;52.526;13.408;2023-04-03T16:34:39;6.60;7.00
1413;DHT22;701;52.526;13.408;2023-04-03T16:37:06;6.60;6.90
1413;DHT22;701;52.526;13.408;2023-04-03T16:39:34;6.60;6.90
1413;DHT22;701;52.526;13.408;2023-04-03T16:42:00;6.60;7.00
1413;DHT22;701;52.526;13.408;2023-04-03T16:44:26;6.60;7.30
1413;DHT22;701;52.526;13.408;2023-04-03T16:46:52;6.50;7.20
1413;DHT22;701;52.526;13.408;2023-04-03T16:49:18;6.40;7.20
1413;DHT22;701;52.526;13.408;2023-04-03T16:51:44;6.30;7.50
1413;DHT22;701;52.526;13.408;2023-04-03T16:54:11;6.30;7.90
1413;DHT22;701;52.526;13.408;2023-04-03T16:56:39;6.20;7.80
1413;DHT22;701;52.526;13.408;2023-04-03T16:59:05;6.20;7.80
1413;DHT22;701;52.526;13.408;2023-04-03T17:01:31;6.10;8.30
1413;DHT22;701;52.526;13.408;2023-04-03T17:03:57;6.10;7.80
1413;DHT22;701;52.526;13.408;2023-04-03T17:06:23;6.10;7.90
1413;DHT22;701;52.526;13.408;2023-04-03T17:08:50;6.10;8.10
1413;DHT22;701;52.526;13.408;2023-04-03T17:14:53;5.90;8.50
1413;DHT22;701;52.526;13.408;2023-04-03T17:17:22;6.00;8.80
1413;DHT22;701;52.526;13.408;2023-04-03T17:19:48;5.90;8.90
1413;DHT22;701;52.526;13.408;2023-04-03T17:22:14;5.90;9.20
1413;DHT22;701;52.526;13.408;2023-04-03T17:24:42;5.90;9.30
1413;DHT22;701;52.526;13.408;2023-04-03T17:27:07;5.90;9.50
1413;DHT22;701;52.526;13.408;2023-04-03T17:29:33;5.90;9.50
1413;DHT22;701;52.526;13.408;2023-04-03T17:31:59;5.80;9.40
1413;DHT22;701;52.526;13.408;2023-04-03T17:34:25;5.80;9.70
1413;DHT22;701;52.526;13.408;2023-04-03T17:36:51;5.80;9.80
1413;DHT22;701;52.526;13.408;2023-04-03T17:39:16;5.80;10.00
1413;DHT22;701;52.526;13.408;2023-04-03T17:41:42;5.80;10.20
1413;DHT22;701;52.526;13.408;2023-04-03T17:44:10;5.80;10.30
1413;DHT22;701;52.526;13.408;2023-04-03T17:46:36;5.70;10.40
1413;DHT22;701;52.526;13.408;2023-04-03T17:49:02;5.70;10.50
1413;DHT22;701;52.526;13.408;2023-04-03T17:51:29;5.70;10.60
1413;DHT22;701;52.526;13.408;2023-04-03T17:53:56;5.70;10.70
1413;DHT22;701;52.526;13.408;2023-04-03T17:56:24;5.70;10.80
1413;DHT22;701;52.526;13.408;2023-04-03T17:58:55;5.70;11.10
1413;DHT22;701;52.526;13.408;2023-04-03T18:01:33;5.70;11.20
1413;DHT22;701;52.526;13.408;2023-04-03T18:04:01;5.70;11.20
1413;DHT22;701;52.526;13.408;2023-04-03T18:06:41;5.60;11.10
1413;DHT22;701;52.526;13.408;2023-04-03T18:11:39;5.60;11.10
1413;DHT22;701;52.526;13.408;2023-04-03T18:14:06;5.50;11.10
1413;DHT22;701;52.526;13.408;2023-04-03T18:16:33;5.50;11.10
1413;DHT22;701;52.526;13.408;2023-04-03T18:18:59;5.50;11.10
1413;DHT22;701;52.526;13.408;2023-04-03T18:21:25;5.50;11.40
1413;DHT22;701;52.526;13.408;2023-04-03T18:23:53;5.40;11.50
1413;DHT22;701;52.526;13.408;2023-04-03T18:26:21;5.40;11.60
1413;DHT22;701;52.526;13.408;2023-04-03T18:28:52;5.40;11.80